Time;durP1;ratioP1;P1;durP2;ratioP2;P2;SDS_P1;SDS_P2;PMS_P1;PMS_P2;Temp;Humidity;BMP_temperature;BMP_pressure;BME280_temperature;BME280_humidity;BME280_pressure;Samples;Min_cycle;Max_cycle;Signal;HPM_P1;HPM_P2
2022/05/05 00:00:46;;;;;;;35.65;18.90;;;10.30;99.90;;;;;;5060752;28;20025;-45
2022/05/05 00:03:12;;;;;;;28.92;18.63;;;10.30;99.90;;;;;;5061008;28;20028;-47
2022/05/05 00:05:37;;;;;;;27.75;16.83;;;10.20;99.90;;;;;;5061048;28;20025;-47
2022/05/05 00:08:04;;;;;;;25.00;16.27;;;10.20;99.90;;;;;;5061893;28;20088;-47
2022/05/05 00:15:58;;;;;;;30.17;15.18;;;10.10;99.90;;;;;;5045671;28;20839;-47
2022/05/05 00:18:23;;;;;;;28.42;16.15;;;10.10;99.90;;;;;;5052798;28;20528;-47
2022/05/05 00:20:49;;;;;;;27.45;15.52;;;10.20;99.90;;;;;;5052791;28;20111;-47
2022/05/05 00:23:14;;;;;;;22.90;16.23;;;10.20;99.90;;;;;;5052595;28;20522;-47
2022/05/05 00:25:40;;;;;;;25.42;16.52;;;10.20;99.90;;;;;;5052800;28;20041;-47
2022/05/05 00:28:07;;;;;;;25.20;15.43;;;10.10;99.90;;;;;;5052665;28;20644;-46
2022/05/05 00:30:32;;;;;;;25.67;16.58;;;10.10;99.90;;;;;;5052756;28;20021;-46
2022/05/05 00:32:58;;;;;;;26.13;16.98;;;9.90;99.90;;;;;;5034658;28;20032;-46
2022/05/05 00:35:23;;;;;;;29.85;17.30;;;9.80;99.90;;;;;;5052755;28;20466;-47
2022/05/05 00:37:49;;;;;;;29.50;17.08;;;9.70;99.90;;;;;;5052652;28;20435;-47
2022/05/05 00:40:15;;;;;;;34.45;18.30;;;9.60;99.90;;;;;;5052502;28;20033;-47
2022/05/05 00:42:41;;;;;;;23.48;16.17;;;9.60;99.90;;;;;;5052241;28;20104;-46
2022/05/05 00:45:07;;;;;;;25.50;17.08;;;9.60;99.90;;;;;;5052454;28;20021;-46
2022/05/05 00:47:33;;;;;;;25.10;16.83;;;9.70;99.90;;;;;;5050190;28;20320;-46
2022/05/05 00:49:59;;;;;;;27.23;16.63;;;9.70;99.90;;;;;;5045505;28;20546;-46
2022/05/05 00:52:26;;;;;;;26.40;16.17;;;9.60;99.90;;;;;;5051510;28;20028;-47
2022/05/05 00:54:55;;;;;;;23.58;15.93;;;9.70;99.90;;;;;;5050021;28;20025;-47
2022/05/05 00:57:21;;;;;;;26.48;15.48;;;9.70;99.90;;;;;;5032038;28;20028;-46
2022/05/05 00:59:47;;;;;;;25.92;15.80;;;9.60;99.90;;;;;;5032797;28;20029;-46
2022/05/05 01:02:13;;;;;;;28.25;16.58;;;9.50;99.90;;;;;;5032601;28;20546;-47
2022/05/05 01:04:40;;;;;;;25.25;16.25;;;9.60;99.90;;;;;;5031874;28;20041;-46
2022/05/05 01:07:06;;;;;;;27.67;15.77;;;9.60;99.90;;;;;;5034200;28;20128;-46
2022/05/05 01:09:34;;;;;;;30.40;15.50;;;9.70;99.90;;;;;;5052430;28;20120;-46
2022/05/05 01:12:00;;;;;;;25.23;15.23;;;9.70;99.90;;;;;;5052284;28;20033;-47
2022/05/05 01:14:25;;;;;;;27.60;15.80;;;9.70;99.90;;;;;;5052371;28;20172;-48
2022/05/05 01:16:51;;;;;;;24.38;14.38;;;9.60;99.90;;;;;;5051868;28;20468;-47
2022/05/05 01:19:17;;;;;;;25.65;15.60;;;9.60;99.90;;;;;;5052140;28;20024;-47
2022/05/05 01:21:57;;;;;;;29.05;16.17;;;9.50;99.90;;;;;;5034106;28;20472;-47
2022/05/05 01:28:10;;;;;;;24.27;15.90;;;9.50;99.90;;;;;;5052144;28;20013;-47
2022/05/05 01:29:54;;;;;;;26.95;17.17;;;9.30;99.90;;;;;;5052208;28;20045;-47
2022/05/05 01:32:20;;;;;;;25.55;16.10;;;9.30;99.90;;;;;;5051720;28;20029;-47
2022/05/05 01:34:46;;;;;;;28.30;17.77;;;9.30;99.90;;;;;;5051690;28;20075;-47
2022/05/05 01:37:11;;;;;;;32.00;17.65;;;9.30;99.90;;;;;;5051515;28;20029;-47
2022/05/05 01:39:37;;;;;;;25.17;16.30;;;9.30;99.90;;;;;;5051586;28;20025;-47
2022/05/05 01:42:03;;;;;;;29.35;16.95;;;9.20;99.90;;;;;;5051528;28;20069;-48
2022/05/05 01:44:28;;;;;;;27.40;16.92;;;9.20;99.90;;;;;;5042431;28;20481;-47
2022/05/05 01:46:54;;;;;;;26.08;16.52;;;9.20;99.90;;;;;;5031271;28;20030;-47
2022/05/05 01:49:20;;;;;;;24.83;15.02;;;9.20;99.90;;;;;;5031483;28;20419;-46
2022/05/05 01:51:46;;;;;;;29.30;16.20;;;9.20;99.90;;;;;;5031550;28;20037;-47
2022/05/05 01:54:12;;;;;;;22.15;14.40;;;9.20;99.90;;;;;;5031159;28;20725;-47
2022/05/05 01:56:37;;;;;;;29.58;15.85;;;9.10;99.90;;;;;;5031510;28;20034;-47
2022/05/05 01:59:03;;;;;;;23.25;14.50;;;9.20;99.90;;;;;;5031524;28;20102;-46
2022/05/05 02:01:29;;;;;;;26.42;15.60;;;9.10;99.90;;;;;;5031516;28;20475;-47
2022/05/05 02:03:54;;;;;;;31.20;16.50;;;9.10;99.90;;;;;;5031159;28;20025;-47
2022/05/05 02:06:20;;;;;;;29.55;16.52;;;9.10;99.90;;;;;;5030949;28;20045;-47
2022/05/05 02:08:46;;;;;;;28.23;16.50;;;9.10;99.90;;;;;;5030987;28;20053;-48
2022/05/05 02:11:12;;;;;;;31.50;16.77;;;9.10;99.90;;;;;;5031082;28;20029;-47
2022/05/05 02:13:37;;;;;;;25.95;15.75;;;9.00;99.90;;;;;;5030598;28;20029;-45
2022/05/05 02:16:04;;;;;;;30.65;16.73;;;9.00;99.90;;;;;;5036485;28;20096;-46
2022/05/05 02:18:31;;;;;;;28.05;16.20;;;9.00;99.90;;;;;;5051075;28;20044;-47
2022/05/05 02:20:56;;;;;;;28.45;16.40;;;9.20;99.90;;;;;;5050820;28;20106;-46
2022/05/05 02:23:23;;;;;;;24.63;15.55;;;9.10;99.90;;;;;;5050796;28;20072;-46
2022/05/05 02:25:48;;;;;;;29.67;16.77;;;9.10;99.90;;;;;;5032844;28;20040;-46
2022/05/05 02:28:14;;;;;;;26.60;15.50;;;9.10;99.90;;;;;;5050396;28;20025;-47
2022/05/05 02:30:40;;;;;;;31.95;17.23;;;8.90;99.90;;;;;;5050346;28;20108;-47
2022/05/05 02:33:06;;;;;;;23.75;16.70;;;8.80;99.90;;;;;;5050628;28;20039;-47
2022/05/05 02:35:32;;;;;;;26.15;17.35;;;8.80;99.90;;;;;;5050399;28;20021;-46
2022/05/05 02:40:42;;;;;;;28.25;17.35;;;8.70;99.90;;;;;;5050479;28;20035;-46
2022/05/05 02:43:08;;;;;;;25.15;17.00;;;8.60;99.90;;;;;;5050661;28;20028;-46
2022/05/05 02:45:34;;;;;;;27.48;16.65;;;8.50;99.90;;;;;;5032038;28;20105;-46
2022/05/05 02:48:00;;;;;;;26.65;17.77;;;8.50;99.90;;;;;;5030310;28;20037;-47
2022/05/05 02:50:26;;;;;;;26.83;18.13;;;8.50;99.90;;;;;;5030366;28;20045;-46
2022/05/05 02:52:53;;;;;;;34.13;17.73;;;8.40;99.90;;;;;;5030160;28;20029;-46
2022/05/05 02:55:19;;;;;;;27.50;17.33;;;8.40;99.90;;;;;;5030646;28;20044;-47
2022/05/05 02:57:45;;;;;;;24.23;16.27;;;8.40;99.90;;;;;;5030483;28;20403;-48
2022/05/05 03:00:12;;;;;;;27.80;17.75;;;8.30;99.90;;;;;;5029881;28;20087;-48
2022/05/05 03:02:41;;;;;;;28.20;16.70;;;8.40;99.90;;;;;;5030109;28;20094;-47
2022/05/05 03:05:08;;;;;;;25.88;17.88;;;8.40;99.90;;;;;;5029639;28;20029;-48
2022/05/05 03:07:34;;;;;;;27.70;17.90;;;8.40;99.90;;;;;;5029778;28;20045;-48
2022/05/05 03:10:00;;;;;;;27.75;19.30;;;8.40;99.90;;;;;;5030149;28;20270;-46
2022/05/05 03:12:25;;;;;;;26.92;17.42;;;8.40;99.90;;;;;;5030161;28;20566;-46
2022/05/05 03:14:51;;;;;;;27.00;17.95;;;8.30;99.90;;;;;;5029966;28;20151;-47
2022/05/05 03:17:17;;;;;;;25.50;16.33;;;8.30;99.90;;;;;;5045559;28;20025;-47
2022/05/05 03:19:43;;;;;;;33.20;19.38;;;8.30;99.90;;;;;;5049573;28;20081;-47
2022/05/05 03:22:08;;;;;;;33.03;19.80;;;8.20;99.90;;;;;;5049804;28;20055;-46
2022/05/05 03:24:34;;;;;;;33.80;19.13;;;8.20;99.90;;;;;;5049617;28;20040;-46
2022/05/05 03:27:01;;;;;;;30.65;19.02;;;8.20;99.90;;;;;;5049729;28;20035;-46
2022/05/05 03:29:27;;;;;;;30.73;19.10;;;8.30;99.90;;;;;;5049630;28;20515;-46
2022/05/05 03:31:54;;;;;;;29.08;18.33;;;8.20;99.90;;;;;;5049671;28;20033;-47
2022/05/05 03:34:20;;;;;;;33.10;19.90;;;8.30;99.90;;;;;;5049570;28;20040;-49
2022/05/05 03:36:46;;;;;;;31.47;18.20;;;8.30;99.90;;;;;;5049641;28;20044;-47
2022/05/05 03:39:11;;;;;;;30.45;18.38;;;8.30;99.90;;;;;;5049707;28;20114;-47
2022/05/05 03:41:37;;;;;;;30.80;19.42;;;8.40;99.90;;;;;;5049811;28;20021;-47
2022/05/05 03:44:05;;;;;;;31.77;18.90;;;8.40;99.90;;;;;;5031953;28;20384;-46
2022/05/05 03:46:31;;;;;;;29.60;17.65;;;8.40;99.90;;;;;;5049506;28;20055;-47
2022/05/05 03:48:56;;;;;;;33.10;19.02;;;8.40;99.90;;;;;;5049546;28;20028;-47
2022/05/05 03:51:22;;;;;;;30.73;19.42;;;8.40;99.90;;;;;;5049713;28;20071;-47
2022/05/05 03:53:48;;;;;;;29.35;18.88;;;8.40;99.90;;;;;;5049731;28;20544;-46
2022/05/05 03:56:14;;;;;;;28.88;18.10;;;8.40;99.90;;;;;;5048789;28;20388;-46
2022/05/05 03:58:39;;;;;;;32.17;18.15;;;8.30;99.90;;;;;;5050302;28;20029;-46
2022/05/05 04:01:05;;;;;;;30.15;18.60;;;8.30;99.90;;;;;;5050087;28;20040;-47
2022/05/05 04:03:31;;;;;;;31.73;18.42;;;8.30;99.90;;;;;;5049444;28;20071;-45
2022/05/05 04:05:57;;;;;;;29.48;18.35;;;8.40;99.90;;;;;;5031393;28;20032;-46
2022/05/05 04:08:23;;;;;;;35.90;21.00;;;8.40;99.90;;;;;;5049134;28;20849;-45
2022/05/05 04:10:49;;;;;;;31.88;21.27;;;8.40;99.90;;;;;;5049287;28;20296;-47
2022/05/05 04:13:14;;;;;;;38.42;24.23;;;8.40;99.90;;;;;;5049658;28;20395;-46
2022/05/05 04:15:40;;;;;;;37.28;23.85;;;8.40;99.90;;;;;;5031321;28;20029;-46
2022/05/05 04:18:06;;;;;;;44.60;27.23;;;8.40;99.90;;;;;;5049314;28;20025;-45
2022/05/05 04:20:32;;;;;;;36.85;23.17;;;8.40;99.90;;;;;;5049139;28;20061;-46
2022/05/05 04:22:58;;;;;;;33.53;23.08;;;8.50;99.90;;;;;;5049218;28;20109;-45
2022/05/05 04:25:23;;;;;;;33.03;22.50;;;8.50;99.90;;;;;;5049426;28;20029;-47
2022/05/05 04:27:50;;;;;;;32.63;20.90;;;8.60;99.90;;;;;;5049164;28;20033;-46
2022/05/05 04:30:16;;;;;;;37.83;20.67;;;8.60;99.90;;;;;;5049734;28;20021;-46
2022/05/05 04:32:42;;;;;;;36.95;21.17;;;8.70;99.90;;;;;;5052702;28;20033;-47
2022/05/05 04:35:09;;;;;;;31.38;20.25;;;8.70;99.90;;;;;;5052916;28;20055;-46
2022/05/05 04:37:35;;;;;;;34.90;21.95;;;8.80;99.90;;;;;;5052770;28;20028;-47
2022/05/05 04:40:01;;;;;;;32.78;19.58;;;9.00;99.90;;;;;;5053187;28;20025;-46
2022/05/05 04:42:26;;;;;;;35.40;21.83;;;9.00;99.90;;;;;;5053153;28;20032;-47
2022/05/05 04:44:52;;;;;;;34.15;22.33;;;9.10;99.90;;;;;;5040065;28;20385;-45
2022/05/05 04:47:18;;;;;;;32.58;21.13;;;9.20;99.90;;;;;;5032654;28;20044;-46
2022/05/05 04:49:43;;;;;;;35.95;21.83;;;9.30;99.90;;;;;;5032679;28;20030;-47
2022/05/05 04:52:09;;;;;;;33.65;22.75;;;9.40;99.90;;;;;;5032706;28;20032;-45
2022/05/05 04:54:35;;;;;;;40.83;24.35;;;9.50;99.90;;;;;;5032571;28;20034;-46
2022/05/05 04:57:01;;;;;;;44.17;26.70;;;9.50;99.90;;;;;;5032458;28;20025;-47
2022/05/05 04:59:27;;;;;;;44.03;27.77;;;9.60;99.90;;;;;;5031606;28;20021;-46
2022/05/05 05:01:53;;;;;;;50.22;30.83;;;9.70;99.90;;;;;;5032437;28;20116;-46
2022/05/05 05:04:18;;;;;;;51.65;30.98;;;9.80;99.90;;;;;;5032513;28;20101;-46
2022/05/05 05:06:44;;;;;;;51.13;32.13;;;9.90;99.90;;;;;;5032178;28;20033;-47
2022/05/05 05:09:10;;;;;;;52.80;35.70;;;9.90;99.90;;;;;;5032391;28;20037;-47
2022/05/05 05:11:36;;;;;;;47.63;33.53;;;10.00;99.90;;;;;;5032317;28;20469;-45
2022/05/05 05:14:01;;;;;;;48.85;32.17;;;10.20;99.90;;;;;;5032324;28;20105;-46
2022/05/05 05:16:27;;;;;;;48.95;29.65;;;10.20;99.90;;;;;;5041101;28;20033;-46
2022/05/05 05:18:54;;;;;;;65.05;28.77;;;10.30;99.90;;;;;;5051997;28;20025;-46
2022/05/05 05:21:22;;;;;;;47.72;29.63;;;10.50;99.90;;;;;;5052051;28;20056;-46
2022/05/05 05:23:49;;;;;;;42.55;27.42;;;10.50;99.90;;;;;;5052264;28;20380;-46
2022/05/05 05:26:15;;;;;;;41.35;26.60;;;10.70;99.90;;;;;;5033933;28;20037;-46
2022/05/05 05:28:41;;;;;;;40.67;25.83;;;10.80;99.90;;;;;;5051921;28;20538;-47
2022/05/05 05:31:07;;;;;;;50.25;28.70;;;10.90;99.90;;;;;;5051806;28;20059;-46
2022/05/05 05:33:32;;;;;;;48.65;29.30;;;11.00;99.90;;;;;;5051740;28;20053;-46
2022/05/05 05:35:58;;;;;;;44.85;28.13;;;11.10;99.90;;;;;;5051566;28;20441;-46
2022/05/05 05:38:25;;;;;;;45.00;27.02;;;11.30;99.90;;;;;;5051718;28;20552;-47
2022/05/05 05:40:51;;;;;;;43.15;26.33;;;11.40;99.90;;;;;;5051296;28;20112;-46
2022/05/05 05:43:16;;;;;;;38.30;25.85;;;11.50;99.90;;;;;;5051338;28;20121;-46
2022/05/05 05:45:42;;;;;;;39.80;24.95;;;11.60;99.90;;;;;;5031970;28;20033;-47
2022/05/05 05:48:08;;;;;;;42.20;24.90;;;11.80;99.90;;;;;;5031589;28;20079;-48
2022/05/05 05:50:34;;;;;;;37.67;25.25;;;11.90;99.90;;;;;;5031344;28;20487;-47
2022/05/05 05:53:00;;;;;;;43.38;26.63;;;12.10;99.90;;;;;;5031454;28;20064;-46
2022/05/05 05:55:26;;;;;;;41.30;27.10;;;12.30;99.90;;;;;;5031474;28;20053;-47
2022/05/05 05:57:52;;;;;;;38.75;25.48;;;12.50;99.90;;;;;;5031420;28;20026;-47
2022/05/05 06:00:18;;;;;;;36.80;25.65;;;12.70;99.90;;;;;;5031195;28;20104;-47
2022/05/05 06:05:28;;;;;;;41.22;26.02;;;13.00;99.90;;;;;;5031265;28;20452;-47
2022/05/05 06:08:01;;;;;;;38.50;27.60;;;13.20;99.90;;;;;;5029540;28;20057;-47
2022/05/05 06:10:27;;;;;;;39.75;27.83;;;13.40;99.90;;;;;;5029787;28;20021;-47
2022/05/05 06:12:54;;;;;;;40.28;27.20;;;13.50;99.90;;;;;;5029633;28;20488;-47
2022/05/05 06:15:20;;;;;;;36.78;27.33;;;13.70;99.90;;;;;;5029798;28;20021;-47
2022/05/05 06:17:46;;;;;;;43.38;27.30;;;13.80;99.90;;;;;;5050700;28;20763;-46
2022/05/05 06:20:12;;;;;;;41.17;28.20;;;13.90;99.90;;;;;;5050620;28;20082;-47
2022/05/05 06:22:37;;;;;;;40.55;25.98;;;13.90;99.90;;;;;;5050553;28;20256;-47
2022/05/05 06:25:04;;;;;;;36.80;24.25;;;14.00;99.90;;;;;;5050783;28;20028;-47
2022/05/05 06:27:30;;;;;;;35.45;24.88;;;14.00;99.90;;;;;;5050423;28;20029;-47
2022/05/05 06:29:56;;;;;;;37.33;24.05;;;14.10;99.90;;;;;;5050806;28;20527;-47
2022/05/05 06:32:21;;;;;;;38.30;23.27;;;14.20;99.90;;;;;;5032886;28;20036;-47
2022/05/05 06:34:47;;;;;;;32.67;22.02;;;14.20;99.90;;;;;;5050332;28;20082;-48
2022/05/05 06:37:13;;;;;;;29.25;20.75;;;14.30;99.90;;;;;;5050562;28;20079;-47
2022/05/05 06:39:39;;;;;;;30.42;20.85;;;14.40;99.90;;;;;;5050488;28;20111;-47
2022/05/05 06:42:05;;;;;;;27.85;19.83;;;14.50;99.90;;;;;;5050339;28;20021;-47
2022/05/05 06:44:30;;;;;;;24.00;17.95;;;14.60;99.90;;;;;;5040908;28;20108;-47
2022/05/05 06:46:58;;;;;;;40.17;17.35;;;14.80;99.90;;;;;;5030287;28;20124;-48
2022/05/05 06:49:24;;;;;;;26.13;17.05;;;14.90;99.90;;;;;;5030612;28;20052;-47
2022/05/05 06:51:50;;;;;;;26.10;16.58;;;15.00;99.90;;;;;;5030313;28;20087;-47
2022/05/05 06:54:16;;;;;;;26.30;15.77;;;14.90;99.90;;;;;;5029577;28;20429;-46
2022/05/05 06:56:41;;;;;;;21.60;14.57;;;15.10;99.90;;;;;;5030276;28;20476;-46
2022/05/05 06:59:07;;;;;;;18.45;13.98;;;15.30;99.90;;;;;;5030297;28;20413;-47
2022/05/05 07:07:01;;;;;;;18.70;12.18;;;15.40;99.90;;;;;;5029815;28;20052;-49
2022/05/05 07:12:11;;;;;;;20.40;13.73;;;15.60;99.90;;;;;;5030335;28;20029;-47
2022/05/05 07:14:36;;;;;;;19.45;13.43;;;15.70;99.90;;;;;;5030064;28;20026;-47
2022/05/05 07:17:03;;;;;;;26.63;14.80;;;15.70;99.90;;;;;;5043520;28;20025;-48
2022/05/05 07:19:29;;;;;;;25.58;14.00;;;15.80;99.90;;;;;;5049789;28;20594;-47
2022/05/05 07:21:54;;;;;;;17.30;11.73;;;15.90;99.90;;;;;;5049959;28;20054;-47
2022/05/05 07:24:20;;;;;;;13.35;8.75;;;15.90;99.90;;;;;;5049873;28;20498;-47
2022/05/05 07:26:46;;;;;;;14.18;8.90;;;16.00;99.90;;;;;;5049794;28;20039;-49
2022/05/05 07:29:11;;;;;;;14.43;8.82;;;16.20;99.90;;;;;;5049728;28;20684;-46
2022/05/05 07:31:37;;;;;;;13.27;7.15;;;16.30;99.90;;;;;;5049908;28;20431;-47
2022/05/05 07:34:02;;;;;;;15.88;7.90;;;16.40;99.90;;;;;;5049708;28;20025;-47
2022/05/05 07:36:28;;;;;;;11.35;7.30;;;16.50;99.90;;;;;;5049758;28;20033;-47
2022/05/05 07:38:54;;;;;;;7.90;6.22;;;16.50;99.90;;;;;;5049543;28;20387;-46
2022/05/05 07:41:19;;;;;;;13.45;6.25;;;16.60;99.90;;;;;;5050009;28;20378;-46
2022/05/05 07:43:45;;;;;;;9.80;4.95;;;16.70;99.90;;;;;;5046650;28;20488;-46
2022/05/05 07:46:11;;;;;;;8.60;5.40;;;16.70;99.90;;;;;;5029723;28;20037;-48
2022/05/05 07:48:36;;;;;;;10.90;5.63;;;16.80;99.90;;;;;;5029732;28;20473;-47
2022/05/05 07:51:02;;;;;;;10.93;6.07;;;17.00;99.90;;;;;;5029481;28;20533;-47
2022/05/05 07:53:28;;;;;;;9.00;5.03;;;17.10;99.90;;;;;;5029628;28;20441;-47
2022/05/05 07:55:53;;;;;;;12.23;5.20;;;17.20;99.90;;;;;;5029319;28;20057;-46
2022/05/05 07:58:19;;;;;;;11.02;4.95;;;17.20;99.90;;;;;;5029609;28;20040;-47
2022/05/05 08:00:45;;;;;;;12.32;5.63;;;17.30;99.90;;;;;;5029389;28;20086;-47
2022/05/05 08:03:11;;;;;;;13.98;7.03;;;17.30;99.90;;;;;;5029517;28;20029;-47
2022/05/05 08:05:37;;;;;;;10.52;5.43;;;17.60;99.90;;;;;;5031653;28;20037;-47
2022/05/05 08:08:02;;;;;;;12.93;5.15;;;17.60;99.90;;;;;;5033266;28;20049;-48
2022/05/05 08:10:29;;;;;;;10.25;5.03;;;17.50;99.90;;;;;;5033314;28;20037;-47
2022/05/05 08:12:55;;;;;;;9.65;5.10;;;17.70;99.90;;;;;;5033664;28;20033;-48
2022/05/05 08:15:21;;;;;;;14.40;4.72;;;17.80;99.90;;;;;;5033269;28;20388;-47
2022/05/05 08:17:48;;;;;;;9.40;5.50;;;17.70;99.90;;;;;;5053015;28;20048;-47
2022/05/05 08:20:15;;;;;;;8.27;4.20;;;17.80;99.90;;;;;;5053194;28;20024;-47
2022/05/05 08:22:41;;;;;;;10.02;4.57;;;17.90;99.90;;;;;;5053208;28;20059;-47
2022/05/05 08:30:53;;;;;;;13.27;6.43;;;17.80;99.90;;;;;;5048136;28;20530;-47
2022/05/05 08:33:18;;;;;;;8.73;5.45;;;17.90;99.90;;;;;;5053076;28;20025;-47
2022/05/05 08:35:44;;;;;;;14.63;6.75;;;18.10;99.90;;;;;;5052772;28;20024;-47
2022/05/05 08:38:10;;;;;;;11.50;6.40;;;18.10;99.90;;;;;;5052380;28;20527;-47
2022/05/05 08:40:41;;;;;;;9.32;5.32;;;18.00;99.90;;;;;;5052549;28;20025;-47
2022/05/05 08:43:07;;;;;;;14.18;5.55;;;18.20;99.90;;;;;;5052251;28;20075;-47
2022/05/05 08:45:33;;;;;;;11.05;5.15;;;18.30;99.90;;;;;;5017900;28;20158;-47
2022/05/05 08:48:01;;;;;;;9.23;6.10;;;18.20;99.90;;;;;;5031036;28;20519;-47
2022/05/05 08:50:28;;;;;;;9.18;5.78;;;18.10;99.90;;;;;;5032086;28;20104;-47
2022/05/05 08:52:54;;;;;;;9.85;5.47;;;18.30;99.90;;;;;;5031306;28;20037;-47
2022/05/05 08:55:21;;;;;;;7.40;3.53;;;18.30;99.90;;;;;;5012990;28;20025;-47
2022/05/05 08:57:47;;;;;;;4.53;2.97;;;18.50;99.90;;;;;;5030447;28;20029;-48
2022/05/05 09:00:15;;;;;;;2.88;2.10;;;18.60;99.90;;;;;;5031398;28;20032;-47
2022/05/05 09:02:42;;;;;;;6.28;3.00;;;18.40;99.90;;;;;;5031012;28;20021;-47
2022/05/05 09:05:09;;;;;;;10.95;3.47;;;18.40;99.90;;;;;;5030839;28;20511;-47
2022/05/05 09:07:47;;;;;;;5.78;3.20;;;18.50;99.90;;;;;;5030633;28;20049;-47
2022/05/05 09:10:15;;;;;;;10.88;5.03;;;18.60;99.90;;;;;;5031175;28;20573;-47
2022/05/05 09:12:41;;;;;;;5.00;3.45;;;18.70;99.90;;;;;;5031871;28;20100;-47
2022/05/05 09:15:10;;;;;;;5.35;2.80;;;18.90;99.90;;;;;;5031916;28;20159;-47
2022/05/05 09:17:36;;;;;;;5.15;3.53;;;19.10;99.90;;;;;;5046327;28;20100;-47
2022/05/05 09:20:06;;;;;;;8.70;4.32;;;19.30;99.90;;;;;;5052027;28;20112;-47
2022/05/05 09:22:31;;;;;;;6.97;4.50;;;19.40;99.90;;;;;;5051572;28;20113;-47
2022/05/05 09:24:57;;;;;;;10.32;4.35;;;19.50;99.90;;;;;;5051595;28;20120;-47
2022/05/05 09:27:24;;;;;;;9.80;4.25;;;19.60;99.90;;;;;;5051536;28;20037;-48
2022/05/05 09:30:06;;;;;;;8.60;4.53;;;19.60;99.90;;;;;;5051699;28;20036;-47
2022/05/05 09:32:37;;;;;;;8.43;4.28;;;19.50;99.90;;;;;;5051957;28;20032;-47
2022/05/05 09:35:13;;;;;;;9.13;4.63;;;19.70;99.90;;;;;;5051582;28;20486;-47
2022/05/05 09:37:47;;;;;;;7.13;3.45;;;20.00;99.90;;;;;;5051671;28;20541;-46
2022/05/05 09:40:17;;;;;;;10.70;4.20;;;20.30;99.90;;;;;;5051637;28;20028;-47
2022/05/05 09:42:49;;;;;;;6.60;3.35;;;20.10;99.90;;;;;;5051593;28;20021;-47
2022/05/05 09:45:21;;;;;;;5.00;3.10;;;20.10;98.60;;;;;;5035684;28;20030;-47
2022/05/05 09:47:55;;;;;;;4.55;2.25;;;20.50;97.10;;;;;;5031284;28;20041;-47
2022/05/05 09:50:23;;;;;;;4.32;2.40;;;20.80;92.00;;;;;;5031548;28;20022;-47
2022/05/05 09:58:22;;;;;;;5.25;2.38;;;21.10;90.10;;;;;;5031742;28;20036;-48
2022/05/05 10:00:58;;;;;;;3.70;2.30;;;20.70;87.50;;;;;;5042823;28;20501;-47
2022/05/05 10:04:05;;;;;;;5.22;3.03;;;21.00;89.60;;;;;;5051430;28;20116;-47
2022/05/05 10:06:36;;;;;;;2.97;2.15;;;21.10;86.90;;;;;;5047977;28;20045;-47
2022/05/05 10:09:03;;;;;;;5.55;2.33;;;21.80;88.80;;;;;;5050134;28;20045;-47
2022/05/05 10:11:29;;;;;;;;;;;22.30;90.90;;;;;;5050395;28;20032;-47
2022/05/05 10:13:56;;;;;;;3.75;2.20;;;22.30;82.70;;;;;;5032714;28;19905;-47
2022/05/05 10:16:23;;;;;;;8.13;2.30;;;22.20;81.90;;;;;;5050747;28;20082;-47
2022/05/05 10:18:50;;;;;;;3.37;2.17;;;21.80;80.30;;;;;;5050611;28;20036;-47
2022/05/05 10:21:31;;;;;;;4.78;2.40;;;21.30;78.80;;;;;;5050722;28;20056;-47
2022/05/05 10:24:22;;;;;;;4.32;2.50;;;21.30;80.70;;;;;;5050359;28;20050;-47
2022/05/05 10:26:59;;;;;;;3.42;2.30;;;21.50;81.10;;;;;;5050303;28;20032;-47
2022/05/05 10:29:31;;;;;;;4.03;2.33;;;21.30;83.20;;;;;;5049667;28;20128;-48
2022/05/05 10:32:09;;;;;;;3.40;2.20;;;21.10;82.80;;;;;;5050565;28;20060;-48
2022/05/05 10:34:37;;;;;;;3.90;2.25;;;21.70;80.20;;;;;;5051566;28;20017;-47
2022/05/05 10:37:06;;;;;;;4.03;1.90;;;21.80;82.50;;;;;;5070279;28;20476;-47
2022/05/05 10:39:43;;;;;;;2.80;1.90;;;21.30;76.10;;;;;;5070145;28;20032;-48
2022/05/05 10:42:19;;;;;;;;;;;21.40;78.60;;;;;;5070828;28;20340;-48
2022/05/05 10:45:09;;;;;;;4.82;2.20;;;21.90;79.50;;;;;;5047008;28;19909;-48
2022/05/05 10:47:50;;;;;;;5.57;2.08;;;22.50;79.40;;;;;;5030372;28;20130;-47
2022/05/05 10:50:37;;;;;;;7.93;2.70;;;22.40;76.70;;;;;;5030362;28;20109;-47
2022/05/05 10:53:03;;;;;;;3.90;2.22;;;22.40;76.10;;;;;;5056440;28;20029;-47
2022/05/05 10:55:41;;;;;;;4.10;2.33;;;22.50;76.40;;;;;;5060116;28;20140;-48
2022/05/05 10:58:09;;;;;;;5.38;2.33;;;22.90;71.70;;;;;;5060956;28;20063;-48
2022/05/05 11:00:42;;;;;;;5.38;2.60;;;23.40;70.80;;;;;;5059366;28;20057;-47
2022/05/05 11:03:14;;;;;;;5.35;2.15;;;23.90;71.40;;;;;;5058626;28;20032;-47
2022/05/05 11:05:41;;;;;;;6.35;2.15;;;23.80;69.60;;;;;;5058795;28;20028;-48
2022/05/05 11:08:28;;;;;;;8.52;2.17;;;22.90;71.20;;;;;;5049662;28;20512;-47
2022/05/05 11:13:48;;;;;;;4.53;2.22;;;22.60;72.40;;;;;;5039687;28;20037;-47
2022/05/05 11:22:15;;;;;;;3.50;1.83;;;22.70;72.20;;;;;;5042767;28;20507;-48
2022/05/05 11:24:46;;;;;;;8.57;2.15;;;23.20;70.90;;;;;;5049523;28;20116;-47
2022/05/05 11:27:24;;;;;;;5.32;1.90;;;23.10;69.70;;;;;;5049627;28;20035;-47
2022/05/05 11:29:53;;;;;;;;;;;22.90;70.50;;;;;;5049857;28;20040;-47
2022/05/05 11:32:21;;;;;;;2.78;1.70;;;23.50;72.70;;;;;;5059864;28;20382;-47
2022/05/05 11:34:48;;;;;;;4.03;2.13;;;23.90;66.50;;;;;;5058579;28;20380;-47
2022/05/05 11:37:14;;;;;;;4.68;1.83;;;23.70;65.40;;;;;;5059355;28;20016;-47
2022/05/05 11:39:41;;;;;;;3.60;1.80;;;24.10;68.60;;;;;;5059477;28;20091;-47
2022/05/05 11:42:08;;;;;;;2.95;1.55;;;24.70;73.00;;;;;;5057815;28;20021;-48
2022/05/05 11:44:40;;;;;;;6.95;1.90;;;25.40;63.80;;;;;;5057973;28;20021;-47
2022/05/05 11:47:13;;;;;;;6.38;2.10;;;25.50;60.40;;;;;;5057865;28;20037;-47
2022/05/05 11:49:44;;;;;;;4.05;1.77;;;24.70;61.30;;;;;;5058741;28;20025;-48
2022/05/05 11:52:24;;;;;;;4.82;2.00;;;25.00;60.40;;;;;;5054947;28;20032;-48
2022/05/05 11:54:50;;;;;;;3.58;1.95;;;25.10;61.10;;;;;;5054781;28;20020;-49
2022/05/05 11:57:38;;;;;;;2.97;1.73;;;25.10;62.00;;;;;;5059416;28;20104;-47
2022/05/05 12:02:51;;;;;;;3.80;2.63;;;24.70;59.00;;;;;;5055044;28;20495;-48
2022/05/05 12:05:18;;;;;;;4.20;2.08;;;24.70;58.90;;;;;;5059347;28;20033;-48
2022/05/05 12:07:46;;;;;;;4.65;2.10;;;24.70;59.80;;;;;;5057361;28;20177;-48
2022/05/05 12:10:14;;;;;;;4.85;2.50;;;24.30;60.60;;;;;;5058175;28;20100;-47
2022/05/05 12:12:50;;;;;;;4.18;2.30;;;24.50;63.10;;;;;;5058300;28;20065;-46
2022/05/05 12:15:18;;;;;;;4.55;2.60;;;24.50;61.20;;;;;;5045893;28;20465;-47
2022/05/05 12:17:49;;;;;;;4.35;2.20;;;24.50;62.50;;;;;;5057886;28;20040;-47
2022/05/05 12:20:16;;;;;;;3.90;2.28;;;24.80;60.60;;;;;;5058825;28;20153;-49
2022/05/05 12:22:43;;;;;;;;;;;25.40;63.00;;;;;;5060021;28;20040;-48
2022/05/05 12:25:14;;;;;;;5.10;2.08;;;25.30;59.00;;;;;;5051810;28;19919;-48
2022/05/05 12:27:58;;;;;;;3.35;2.00;;;24.60;59.60;;;;;;5036198;28;20124;-48
2022/05/05 12:30:36;;;;;;;6.68;3.85;;;24.20;60.10;;;;;;5049016;28;20036;-48
2022/05/05 12:33:04;;;;;;;3.75;2.78;;;23.70;63.10;;;;;;5049134;28;20047;-47
2022/05/05 12:35:31;;;;;;;;;;;23.30;63.50;;;;;;5049721;28;20449;-48
2022/05/05 12:38:01;;;;;;;8.07;3.00;;;22.80;65.80;;;;;;5049363;28;19955;-48
2022/05/05 12:40:27;;;;;;;7.72;3.08;;;22.50;68.70;;;;;;5048985;28;20370;-47
2022/05/05 12:43:07;;;;;;;8.27;3.15;;;22.30;68.70;;;;;;5048159;28;20040;-47
2022/05/05 12:45:34;;;;;;;6.18;3.33;;;22.00;69.30;;;;;;5031040;28;20034;-48
2022/05/05 12:48:01;;;;;;;6.30;2.60;;;22.00;72.10;;;;;;5029192;28;20481;-48
2022/05/05 12:50:35;;;;;;;6.10;2.90;;;22.10;71.00;;;;;;5044943;28;20112;-47
2022/05/05 13:01:22;;;;;;;8.75;2.65;;;22.20;69.60;;;;;;5052613;28;20538;-47
2022/05/05 13:03:49;;;;;;;49.20;5.68;;;22.40;68.60;;;;;;5041507;28;20042;-48
2022/05/05 13:06:15;;;;;;;7.72;2.78;;;22.30;67.60;;;;;;5032151;28;20041;-48
2022/05/05 13:08:40;;;;;;;7.32;3.05;;;22.50;69.30;;;;;;5032145;28;20421;-48
2022/05/05 13:11:06;;;;;;;5.80;2.53;;;22.60;67.70;;;;;;5032115;28;20037;-47
2022/05/05 13:13:32;;;;;;;5.15;3.30;;;22.70;68.40;;;;;;5032292;28;20041;-47
2022/05/05 13:15:57;;;;;;;6.60;3.10;;;22.80;71.90;;;;;;5031921;28;20025;-47
2022/05/05 13:18:23;;;;;;;14.52;3.05;;;22.70;69.40;;;;;;5031803;28;20484;-48
2022/05/05 13:20:49;;;;;;;7.30;2.45;;;22.60;68.50;;;;;;5032148;28;20061;-46
2022/05/05 13:23:14;;;;;;;3.22;2.20;;;22.50;69.40;;;;;;5031838;28;20036;-47
2022/05/05 13:25:40;;;;;;;10.65;2.60;;;22.50;67.30;;;;;;5032084;28;20021;-47
2022/05/05 13:28:07;;;;;;;6.03;2.50;;;22.40;69.60;;;;;;5031926;28;20507;-49
2022/05/05 13:30:33;;;;;;;11.27;3.45;;;22.30;69.70;;;;;;5030984;28;20030;-50
2022/05/05 13:32:58;;;;;;;9.05;2.83;;;22.20;71.20;;;;;;5031608;28;20040;-48
2022/05/05 13:35:24;;;;;;;4.00;2.58;;;22.00;71.30;;;;;;5031605;28;20069;-49